createdAt,value
2023-04-12T00:01:13.544Z,77.23
2023-04-12T00:03:41.333Z,76.78
2023-04-12T00:06:10.576Z,76.70
2023-04-12T00:08:37.897Z,76.23
2023-04-12T00:11:05.790Z,77.06
2023-04-12T00:13:33.269Z,77.53
2023-04-12T00:16:00.753Z,77.21
2023-04-12T00:18:28.473Z,76.56
2023-04-12T00:20:56.024Z,76.40
2023-04-12T00:23:23.476Z,76.61
2023-04-12T00:25:51.343Z,77.88
2023-04-12T00:28:19.023Z,77.17
2023-04-12T00:30:46.478Z,76.38
2023-04-12T00:33:14.127Z,77.07
2023-04-12T00:35:41.523Z,76.90
2023-04-12T00:38:10.949Z,77.28
2023-04-12T00:40:44.924Z,76.80
2023-04-12T00:43:15.722Z,76.91
2023-04-12T00:45:44.568Z,76.67
2023-04-12T00:48:12.576Z,77.54
2023-04-12T00:50:45.043Z,76.46
2023-04-12T00:53:14.256Z,76.27
2023-04-12T00:55:44.929Z,77.52
2023-04-12T00:58:14.388Z,77.07
2023-04-12T01:00:42.305Z,76.64
2023-04-12T01:03:09.860Z,77.03
2023-04-12T01:05:50.695Z,76.82
2023-04-12T01:08:28.484Z,77.00
2023-04-12T01:11:06.417Z,76.13
2023-04-12T01:13:41.206Z,76.57
2023-04-12T01:16:26.769Z,77.02
2023-04-12T01:18:59.967Z,76.78
2023-04-12T01:21:39.662Z,77.63
2023-04-12T01:24:16.431Z,76.65
2023-04-12T01:26:47.092Z,77.35
2023-04-12T01:29:21.333Z,77.06
2023-04-12T01:31:56.861Z,76.73
2023-04-12T01:34:27.526Z,77.43
2023-04-12T01:36:57.338Z,77.22
2023-04-12T01:39:24.717Z,77.32
2023-04-12T01:41:52.139Z,78.26
2023-04-12T01:44:19.990Z,78.26
2023-04-12T01:46:48.749Z,78.74
2023-04-12T01:49:17.915Z,78.76
2023-04-12T01:51:58.553Z,78.52
2023-04-12T01:54:33.327Z,78.15
2023-04-12T01:57:03.926Z,78.62
2023-04-12T01:59:45.688Z,78.46
2023-04-12T02:02:13.979Z,78.07
2023-04-12T02:04:43.186Z,78.40
2023-04-12T02:07:11.620Z,78.72
2023-04-12T02:09:39.756Z,79.19
2023-04-12T02:12:08.180Z,78.68
2023-04-12T02:14:37.098Z,79.34
2023-04-12T02:17:05.584Z,78.36
2023-04-12T02:19:33.183Z,78.62
2023-04-12T02:22:01.275Z,79.42
2023-04-12T02:24:29.921Z,79.28
2023-04-12T02:26:59.268Z,79.52
2023-04-12T02:29:27.685Z,78.90
2023-04-12T02:31:55.261Z,79.31
2023-04-12T02:34:23.179Z,78.60
2023-04-12T02:36:51.335Z,78.67
2023-04-12T02:39:18.942Z,78.96
2023-04-12T02:41:46.912Z,79.20
2023-04-12T02:44:15.221Z,79.11
2023-04-12T02:46:44.007Z,79.51
2023-04-12T02:49:11.829Z,78.29
2023-04-12T02:51:40.543Z,78.75
2023-04-12T02:54:08.046Z,79.66
2023-04-12T02:56:37.164Z,79.58
2023-04-12T02:59:07.007Z,80.50
2023-04-12T03:01:35.062Z,80.00
2023-04-12T03:04:03.690Z,79.80
2023-04-12T03:06:32.213Z,79.91
2023-04-12T03:09:00.570Z,80.54
2023-04-12T03:11:27.856Z,80.02
2023-04-12T03:13:56.229Z,79.84
2023-04-12T03:16:30.173Z,79.24
2023-04-12T03:18:59.930Z,80.06
2023-04-12T03:21:28.501Z,80.04
2023-04-12T03:23:56.551Z,79.63
2023-04-12T03:26:26.742Z,79.05
2023-04-12T03:29:01.529Z,80.27
2023-04-12T03:31:31.593Z,80.62
2023-04-12T03:34:02.305Z,79.90
2023-04-12T03:36:31.433Z,81.30
2023-04-12T03:38:59.690Z,81.46
2023-04-12T03:41:28.733Z,82.14
2023-04-12T03:43:57.184Z,80.84
2023-04-12T03:46:25.108Z,82.11
2023-04-12T03:48:53.077Z,81.50
2023-04-12T03:51:22.443Z,80.67
2023-04-12T03:53:49.874Z,81.07
2023-04-12T03:56:17.206Z,82.11
2023-04-12T03:58:45.136Z,82.31
2023-04-12T04:01:13.919Z,81.87
2023-04-12T04:03:42.602Z,81.62
2023-04-12T04:06:11.562Z,80.78
2023-04-12T04:08:39.675Z,80.98
2023-04-12T04:11:09.014Z,81.32
2023-04-12T04:13:37.273Z,81.32
2023-04-12T04:16:07.772Z,83.63
2023-04-12T04:18:36.371Z,83.64
2023-04-12T04:21:05.219Z,82.92
2023-04-12T04:23:38.852Z,83.69
2023-04-12T04:26:11.365Z,84.27
2023-04-12T04:28:45.403Z,83.25
2023-04-12T04:31:17.053Z,81.10
2023-04-12T04:33:47.435Z,80.71
2023-04-12T04:36:36.099Z,81.35
2023-04-12T04:39:08.225Z,81.11
2023-04-12T04:41:39.742Z,81.11
2023-04-12T04:44:09.700Z,80.56
2023-04-12T04:46:38.274Z,81.31
2023-04-12T04:49:06.592Z,81.19
2023-04-12T04:51:33.955Z,80.69
2023-04-12T04:54:03.584Z,80.14
2023-04-12T04:56:32.951Z,79.10
2023-04-12T04:59:02.828Z,78.87
2023-04-12T05:01:32.266Z,79.70
2023-04-12T05:04:01.838Z,78.93
2023-04-12T05:06:29.839Z,77.59
2023-04-12T05:08:58.463Z,76.81
2023-04-12T05:11:26.722Z,77.47
2023-04-12T05:13:54.710Z,76.20
2023-04-12T05:16:22.552Z,76.57
2023-04-12T05:18:49.951Z,77.04
2023-04-12T05:21:18.967Z,75.55
2023-04-12T05:23:47.614Z,75.27
2023-04-12T05:26:14.987Z,75.90
2023-04-12T05:28:43.137Z,75.94
2023-04-12T05:31:14.791Z,76.38
2023-04-12T05:33:42.570Z,75.99
2023-04-12T05:36:11.062Z,75.33
2023-04-12T05:38:39.207Z,74.47
2023-04-12T05:41:08.339Z,74.59
2023-04-12T05:43:37.959Z,73.46
2023-04-12T05:46:08.187Z,72.34
2023-04-12T05:48:36.000Z,72.90
2023-04-12T05:51:05.385Z,71.99
2023-04-12T05:53:34.752Z,71.86
2023-04-12T05:56:03.285Z,70.83
2023-04-12T05:58:30.876Z,71.01
2023-04-12T06:00:59.271Z,70.90
2023-04-12T06:03:30.529Z,70.75
2023-04-12T06:05:58.254Z,70.48
2023-04-12T06:08:25.706Z,68.91
2023-04-12T06:10:53.390Z,69.43
2023-04-12T06:13:21.591Z,69.27
2023-04-12T06:15:49.300Z,68.16
2023-04-12T06:18:17.263Z,66.49
2023-04-12T06:20:46.543Z,67.71
2023-04-12T06:23:14.157Z,66.89
2023-04-12T06:25:42.128Z,68.11
2023-04-12T06:28:10.147Z,66.98
2023-04-12T06:30:41.121Z,67.64
2023-04-12T06:33:09.290Z,67.11
2023-04-12T06:35:36.710Z,67.46
2023-04-12T06:38:04.143Z,68.88
2023-04-12T06:40:32.571Z,69.94
2023-04-12T06:43:00.592Z,72.27
2023-04-12T06:45:28.392Z,74.44
2023-04-12T06:47:57.280Z,78.10
2023-04-12T06:50:26.769Z,78.27
2023-04-12T06:52:54.382Z,80.79
2023-04-12T06:55:22.072Z,82.36
2023-04-12T06:57:52.248Z,81.74
2023-04-12T07:00:19.811Z,81.26
2023-04-12T07:02:47.579Z,82.53
2023-04-12T07:05:15.132Z,83.71
2023-04-12T07:07:42.460Z,84.56
2023-04-12T07:10:10.886Z,83.94
2023-04-12T07:12:38.282Z,83.81
2023-04-12T07:15:06.108Z,82.51
2023-04-12T07:17:34.037Z,83.23
2023-04-12T07:20:01.667Z,82.13
2023-04-12T07:22:30.640Z,82.88
2023-04-12T07:24:58.238Z,79.79
2023-04-12T07:27:25.463Z,80.21
2023-04-12T07:29:56.227Z,77.29
2023-04-12T07:32:25.150Z,74.58
2023-04-12T07:34:53.454Z,74.21
2023-04-12T07:37:21.308Z,73.75
2023-04-12T07:39:49.119Z,71.19
2023-04-12T07:42:16.977Z,70.22
2023-04-12T07:44:44.362Z,69.12
2023-04-12T07:47:15.853Z,68.54
2023-04-12T07:49:43.273Z,66.74
2023-04-12T07:52:11.947Z,64.92
2023-04-12T07:54:40.391Z,66.18
2023-04-12T07:57:09.106Z,63.24
2023-04-12T07:59:36.872Z,61.42
2023-04-12T08:02:06.390Z,60.55
2023-04-12T08:04:34.190Z,60.11
2023-04-12T08:07:01.678Z,60.45
2023-04-12T08:09:29.030Z,59.46
2023-04-12T08:11:58.404Z,61.64
2023-04-12T08:14:26.512Z,59.92
2023-04-12T08:16:53.851Z,58.71
2023-04-12T08:19:22.531Z,59.14
2023-04-12T08:21:50.345Z,59.15
2023-04-12T08:24:18.559Z,59.53
2023-04-12T08:26:46.968Z,59.17
2023-04-12T08:29:14.888Z,59.49
2023-04-12T08:31:42.596Z,58.06
2023-04-12T08:34:10.324Z,58.68
2023-04-12T08:36:38.686Z,57.92
2023-04-12T08:39:06.271Z,57.35
2023-04-12T08:41:37.031Z,56.41
2023-04-12T08:44:06.155Z,57.42
2023-04-12T08:46:37.651Z,54.07
2023-04-12T08:49:05.983Z,51.41
2023-04-12T08:51:37.238Z,50.34
2023-04-12T08:54:05.554Z,47.71
2023-04-12T08:56:33.545Z,49.29
2023-04-12T08:59:02.705Z,47.95
2023-04-12T09:01:30.655Z,48.40
2023-04-12T09:03:59.147Z,47.11
2023-04-12T09:06:27.608Z,46.78
2023-04-12T09:08:57.294Z,45.60
2023-04-12T09:11:26.945Z,44.82
2023-04-12T09:13:58.991Z,49.25
2023-04-12T09:16:40.588Z,46.35
2023-04-12T09:19:09.718Z,46.60
2023-04-12T09:21:51.631Z,44.95
2023-04-12T09:24:19.748Z,47.03
2023-04-12T09:26:47.561Z,42.58
2023-04-12T09:29:28.399Z,44.00
2023-04-12T09:32:10.189Z,43.03
2023-04-12T09:34:37.927Z,44.65
2023-04-12T09:37:24.534Z,45.86
2023-04-12T09:40:06.946Z,42.95
2023-04-12T09:42:37.132Z,41.92
2023-04-12T09:45:20.506Z,40.28
2023-04-12T09:47:49.806Z,42.70
2023-04-12T09:50:25.267Z,40.42
2023-04-12T09:52:54.340Z,42.16
2023-04-12T09:55:24.960Z,41.30
2023-04-12T09:57:54.586Z,41.82
2023-04-12T10:00:27.525Z,42.54
2023-04-12T10:02:57.532Z,38.82
2023-04-12T10:05:28.147Z,39.66
2023-04-12T10:07:58.803Z,39.81
2023-04-12T10:10:29.769Z,40.14
2023-04-12T10:12:58.710Z,39.25
2023-04-12T10:15:27.861Z,38.03
2023-04-12T10:17:57.700Z,38.54
2023-04-12T10:20:29.261Z,37.39
2023-04-12T10:23:01.965Z,37.69
2023-04-12T10:25:31.291Z,39.52
2023-04-12T10:28:22.262Z,36.48
2023-04-12T10:30:53.478Z,39.31
2023-04-12T10:33:26.904Z,38.64
2023-04-12T10:36:08.806Z,33.17
2023-04-12T10:39:10.283Z,32.04
2023-04-12T10:41:38.192Z,31.49
2023-04-12T10:44:29.115Z,31.18
2023-04-12T10:46:56.880Z,31.23
2023-04-12T10:49:25.366Z,29.22
2023-04-12T10:52:02.748Z,29.96
2023-04-12T10:54:37.376Z,32.38
2023-04-12T10:57:05.718Z,30.91
2023-04-12T10:59:57.613Z,30.97
2023-04-12T11:02:25.600Z,31.68
2023-04-12T11:05:11.804Z,32.05
2023-04-12T11:07:46.326Z,31.45
2023-04-12T11:10:21.986Z,32.30
2023-04-12T11:12:57.541Z,32.31
2023-04-12T11:15:30.691Z,31.07
2023-04-12T11:18:01.379Z,29.36
2023-04-12T11:20:30.504Z,29.27
2023-04-12T11:23:01.255Z,29.72
2023-04-12T11:25:29.317Z,31.38
2023-04-12T11:27:57.593Z,29.74
2023-04-12T11:30:26.395Z,29.49
2023-04-12T11:32:55.680Z,29.85
2023-04-12T11:35:27.898Z,28.80
2023-04-12T11:37:59.281Z,26.25
2023-04-12T11:40:27.780Z,28.21
2023-04-12T11:42:57.905Z,27.70
2023-04-12T11:45:27.064Z,25.58
2023-04-12T11:47:58.363Z,27.08
2023-04-12T11:50:31.312Z,29.46
2023-04-12T11:53:13.461Z,27.77
2023-04-12T11:55:41.739Z,28.46
2023-04-12T11:58:09.015Z,27.20
2023-04-12T12:00:37.000Z,27.78
2023-04-12T12:03:08.252Z,27.54
2023-04-12T12:05:41.465Z,29.58
2023-04-12T12:08:09.781Z,28.59
2023-04-12T12:10:51.915Z,27.77
2023-04-12T12:13:23.540Z,27.49
2023-04-12T12:15:54.099Z,27.07
2023-04-12T12:18:26.662Z,26.50
2023-04-12T12:20:55.949Z,28.44
2023-04-12T12:23:33.560Z,26.79
2023-04-12T12:26:17.789Z,27.50
2023-04-12T12:28:51.019Z,26.34
2023-04-12T12:31:21.574Z,27.65
2023-04-12T12:33:49.865Z,27.67
2023-04-12T12:36:23.036Z,26.23
2023-04-12T12:38:53.451Z,28.02
2023-04-12T12:41:25.207Z,27.38
2023-04-12T12:43:53.249Z,28.08
2023-04-12T12:46:21.190Z,27.03
2023-04-12T12:48:49.025Z,27.16
2023-04-12T12:51:20.471Z,27.60
2023-04-12T12:53:48.530Z,28.39
2023-04-12T12:56:16.182Z,29.58
2023-04-12T12:58:43.996Z,29.31
2023-04-12T13:01:11.496Z,28.41
2023-04-12T13:03:39.074Z,29.86
2023-04-12T13:06:07.748Z,28.08
2023-04-12T13:08:37.314Z,29.25
2023-04-12T13:11:05.808Z,27.97
2023-04-12T13:13:33.505Z,28.29
2023-04-12T13:16:00.987Z,27.61
2023-04-12T13:18:28.378Z,27.45
2023-04-12T13:20:56.851Z,26.95
2023-04-12T13:23:24.189Z,25.54
2023-04-12T13:25:51.563Z,26.30
2023-04-12T13:28:19.640Z,27.06
2023-04-12T13:30:48.901Z,26.39
2023-04-12T13:33:20.124Z,26.69
2023-04-12T13:35:49.649Z,26.74
2023-04-12T13:38:17.122Z,26.63
2023-04-12T13:40:44.474Z,27.55
2023-04-12T13:43:12.093Z,26.45
2023-04-12T13:45:39.478Z,27.12
2023-04-12T13:48:06.892Z,27.08
2023-04-12T13:50:34.629Z,27.30
2023-04-12T13:53:01.944Z,27.14
2023-04-12T13:55:29.282Z,27.48
2023-04-12T13:57:56.887Z,28.68
2023-04-12T14:00:24.251Z,27.15
2023-04-12T14:02:52.141Z,27.87
2023-04-12T14:05:19.915Z,28.09
2023-04-12T14:07:50.011Z,27.15
2023-04-12T14:10:17.704Z,27.42
2023-04-12T14:12:47.589Z,27.31
2023-04-12T14:15:14.967Z,26.38
2023-04-12T14:17:42.897Z,26.78
2023-04-12T14:20:13.570Z,27.09
2023-04-12T14:22:41.036Z,27.15
2023-04-12T14:25:10.387Z,27.35
2023-04-12T14:27:38.173Z,26.90
2023-04-12T14:30:07.419Z,27.49
2023-04-12T14:32:35.226Z,27.04
2023-04-12T14:35:04.386Z,26.53
2023-04-12T14:37:33.286Z,26.81
2023-04-12T14:40:01.289Z,26.84
2023-04-12T14:42:28.648Z,25.87
2023-04-12T14:44:55.998Z,26.15
2023-04-12T14:47:23.763Z,25.29
2023-04-12T14:49:51.357Z,25.08
2023-04-12T14:52:19.052Z,25.70
2023-04-12T14:54:46.971Z,24.93
2023-04-12T14:57:15.102Z,24.89
2023-04-12T14:59:42.542Z,24.07
2023-04-12T15:02:13.234Z,23.06
2023-04-12T15:04:41.154Z,23.79
2023-04-12T15:07:08.548Z,24.71
2023-04-12T15:09:36.323Z,24.75
2023-04-12T15:12:03.838Z,24.00
2023-04-12T15:14:31.642Z,23.69
2023-04-12T15:16:59.342Z,23.78
2023-04-12T15:19:27.394Z,23.27
2023-04-12T15:21:55.502Z,23.20
2023-04-12T15:24:24.571Z,22.65
2023-04-12T15:26:53.210Z,21.85
2023-04-12T15:29:22.812Z,22.59
2023-04-12T15:31:51.015Z,22.68
2023-04-12T15:34:18.598Z,22.93
2023-04-12T15:36:46.204Z,23.27
2023-04-12T15:39:15.192Z,24.10
2023-04-12T15:41:43.573Z,23.86
2023-04-12T15:44:14.880Z,23.26
2023-04-12T15:46:42.923Z,23.43
2023-04-12T15:49:11.262Z,22.20
2023-04-12T15:51:38.889Z,22.39
2023-04-12T15:54:06.871Z,22.16
2023-04-12T15:56:35.276Z,22.36
2023-04-12T15:59:03.154Z,23.71
2023-04-12T16:01:30.938Z,24.56
2023-04-12T16:03:58.923Z,25.02
2023-04-12T16:06:27.392Z,25.36
2023-04-12T16:08:55.395Z,25.40
2023-04-12T16:11:24.207Z,25.75
2023-04-12T16:13:52.601Z,26.19
2023-04-12T16:16:23.000Z,25.21
2023-04-12T16:18:51.717Z,24.48
2023-04-12T16:21:20.922Z,23.80
2023-04-12T16:23:50.598Z,24.89
2023-04-12T16:26:22.087Z,27.06
2023-04-12T16:28:55.645Z,28.97
2023-04-12T16:31:25.622Z,30.85
2023-04-12T16:33:54.247Z,31.35
2023-04-12T16:36:24.296Z,31.54
2023-04-12T16:38:55.273Z,32.21
2023-04-12T16:41:23.333Z,32.67
2023-04-12T16:43:53.922Z,33.06
2023-04-12T16:46:21.831Z,33.50
2023-04-12T16:48:49.430Z,33.36
2023-04-12T16:51:17.232Z,34.04
2023-04-12T16:53:44.932Z,33.63
2023-04-12T16:56:12.732Z,34.94
2023-04-12T16:58:41.074Z,34.36
2023-04-12T17:01:09.958Z,35.36
2023-04-12T17:03:41.988Z,35.56
2023-04-12T17:06:10.310Z,35.40
2023-04-12T17:08:38.116Z,35.36
2023-04-12T17:11:06.265Z,35.60
2023-04-12T17:13:34.816Z,36.19
2023-04-12T17:16:04.208Z,37.00
2023-04-12T17:18:32.112Z,37.00
2023-04-12T17:21:00.893Z,37.25
2023-04-12T17:23:28.733Z,36.35
2023-04-12T17:25:57.018Z,36.90
2023-04-12T17:28:25.208Z,37.76
2023-04-12T17:30:53.828Z,37.75
2023-04-12T17:33:21.587Z,37.45
2023-04-12T17:35:49.554Z,37.42
2023-04-12T17:38:16.904Z,37.53
2023-04-12T17:40:44.205Z,37.17
2023-04-12T17:43:12.332Z,37.39
2023-04-12T17:45:40.293Z,38.09
2023-04-12T17:48:11.216Z,38.19
2023-04-12T17:50:38.981Z,38.74
2023-04-12T17:53:06.267Z,37.91
2023-04-12T17:55:33.959Z,38.15
2023-04-12T17:58:05.787Z,38.51
2023-04-12T18:00:33.685Z,38.97
2023-04-12T18:03:01.520Z,39.48
2023-04-12T18:05:29.094Z,38.76
2023-04-12T18:07:57.227Z,38.48
2023-04-12T18:10:27.434Z,39.36
2023-04-12T18:12:55.349Z,39.23
2023-04-12T18:15:22.854Z,39.70
2023-04-12T18:17:50.716Z,40.63
2023-04-12T18:20:18.509Z,39.89
2023-04-12T18:22:46.141Z,40.42
2023-04-12T18:25:13.920Z,40.60
2023-04-12T18:27:41.523Z,40.63
2023-04-12T18:30:09.598Z,40.44
2023-04-12T18:32:37.641Z,39.82
2023-04-12T18:35:06.273Z,40.33
2023-04-12T18:37:33.925Z,41.00
2023-04-12T18:40:01.757Z,40.86
2023-04-12T18:42:29.293Z,41.65
2023-04-12T18:44:58.365Z,41.33
2023-04-12T18:47:29.214Z,41.19
2023-04-12T18:49:56.651Z,42.05
2023-04-12T18:52:24.051Z,41.36
2023-04-12T18:54:51.907Z,41.42
2023-04-12T18:57:19.466Z,41.67
2023-04-12T18:59:48.086Z,41.91
2023-04-12T19:02:16.025Z,41.83
2023-04-12T19:04:43.460Z,41.98
2023-04-12T19:07:11.020Z,41.53
2023-04-12T19:09:38.793Z,42.82
2023-04-12T19:12:06.332Z,42.64
2023-04-12T19:14:33.770Z,42.55
2023-04-12T19:17:01.476Z,44.56
2023-04-12T19:19:29.033Z,44.79
2023-04-12T19:21:56.467Z,44.74
2023-04-12T19:24:24.688Z,45.67
2023-04-12T19:26:51.989Z,46.05
2023-04-12T19:29:20.000Z,45.42
2023-04-12T19:31:49.247Z,45.91
2023-04-12T19:34:18.088Z,46.31
2023-04-12T19:36:46.011Z,46.98
2023-04-12T19:39:13.676Z,47.01
2023-04-12T19:41:41.175Z,46.63
2023-04-12T19:44:08.653Z,47.22
2023-04-12T19:46:39.041Z,48.82
2023-04-12T19:49:06.506Z,48.92
2023-04-12T19:51:34.843Z,49.79
2023-04-12T19:54:03.115Z,51.25
2023-04-12T19:56:31.727Z,51.18
2023-04-12T19:59:00.389Z,52.69
2023-04-12T20:01:28.495Z,52.08
2023-04-12T20:03:56.282Z,52.02
2023-04-12T20:06:23.712Z,52.30
2023-04-12T20:08:51.421Z,52.66
2023-04-12T20:11:19.208Z,52.90
2023-04-12T20:13:46.764Z,53.59
2023-04-12T20:16:14.251Z,53.19
2023-04-12T20:18:42.247Z,53.40
2023-04-12T20:21:10.500Z,52.62
2023-04-12T20:23:38.086Z,53.43
2023-04-12T20:26:05.801Z,53.59
2023-04-12T20:28:33.243Z,53.74
2023-04-12T20:31:00.970Z,53.81
2023-04-12T20:33:29.548Z,53.54
2023-04-12T20:35:56.923Z,53.98
2023-04-12T20:38:24.365Z,54.86
2023-04-12T20:40:52.468Z,54.09
2023-04-12T20:43:19.904Z,55.69
2023-04-12T20:45:48.470Z,55.68
2023-04-12T20:48:16.885Z,55.75
2023-04-12T20:50:45.045Z,55.60
2023-04-12T20:53:17.727Z,55.49
2023-04-12T20:55:45.914Z,55.73
2023-04-12T20:58:13.337Z,56.01
2023-04-12T21:00:40.921Z,55.99
2023-04-12T21:03:08.853Z,55.37
2023-04-12T21:05:36.280Z,57.63
2023-04-12T21:08:03.617Z,56.85
2023-04-12T21:10:31.411Z,58.06
2023-04-12T21:13:02.061Z,58.03
2023-04-12T21:15:30.332Z,58.75
2023-04-12T21:17:58.034Z,58.80
2023-04-12T21:20:25.626Z,59.06
2023-04-12T21:22:53.707Z,59.99
2023-04-12T21:25:21.661Z,59.26
2023-04-12T21:27:49.951Z,58.88
2023-04-12T21:30:17.505Z,58.70
2023-04-12T21:32:45.212Z,59.53
2023-04-12T21:35:16.471Z,60.75
2023-04-12T21:37:44.138Z,61.44
2023-04-12T21:40:12.828Z,61.85
2023-04-12T21:42:41.366Z,61.24
2023-04-12T21:45:13.811Z,60.76
2023-04-12T21:47:42.627Z,61.59
2023-04-12T21:50:10.903Z,61.36
2023-04-12T21:52:40.285Z,62.05
2023-04-12T21:55:08.375Z,61.89
2023-04-12T21:57:36.082Z,61.94
2023-04-12T22:00:06.507Z,61.17
2023-04-12T22:02:39.259Z,61.65
2023-04-12T22:05:07.767Z,61.47
2023-04-12T22:07:35.439Z,61.28
2023-04-12T22:10:02.783Z,61.74
2023-04-12T22:12:30.523Z,62.00
2023-04-12T22:14:58.682Z,62.65
2023-04-12T22:17:26.485Z,62.71
2023-04-12T22:19:56.783Z,62.69
2023-04-12T22:22:25.238Z,62.23
2023-04-12T22:24:53.995Z,63.72
2023-04-12T22:27:21.570Z,64.08
2023-04-12T22:29:50.174Z,63.86
2023-04-12T22:32:17.570Z,63.34
2023-04-12T22:34:45.838Z,63.16
2023-04-12T22:37:14.920Z,63.75
2023-04-12T22:39:42.976Z,64.21
2023-04-12T22:42:10.919Z,64.95
2023-04-12T22:44:38.590Z,65.79
2023-04-12T22:47:09.002Z,65.65
2023-04-12T22:49:46.560Z,65.66
2023-04-12T22:52:13.895Z,65.72
2023-04-12T22:54:41.508Z,65.97
2023-04-12T22:57:08.863Z,66.63
2023-04-12T22:59:36.325Z,66.01
2023-04-12T23:02:04.197Z,67.60
2023-04-12T23:04:31.634Z,68.03
2023-04-12T23:06:59.018Z,67.77
2023-04-12T23:09:27.449Z,67.08
2023-04-12T23:11:54.894Z,66.75
2023-04-12T23:14:22.892Z,67.66
2023-04-12T23:16:51.831Z,66.79
2023-04-12T23:19:19.148Z,66.53
2023-04-12T23:21:46.517Z,66.11
2023-04-12T23:24:16.631Z,66.59
2023-04-12T23:26:47.425Z,66.39
2023-04-12T23:29:15.349Z,67.71
2023-04-12T23:31:42.759Z,66.96
2023-04-12T23:34:10.076Z,66.60
2023-04-12T23:36:37.743Z,66.29
2023-04-12T23:39:08.786Z,66.98
2023-04-12T23:41:36.336Z,67.64
2023-04-12T23:44:04.016Z,67.60
2023-04-12T23:46:31.472Z,66.43
2023-04-12T23:48:58.836Z,67.48
2023-04-12T23:51:27.409Z,67.67
2023-04-12T23:53:54.702Z,69.30
2023-04-12T23:56:22.172Z,69.46
2023-04-12T23:58:50.003Z,69.30
